Time;durP1;ratioP1;P1;durP2;ratioP2;P2;SDS_P1;SDS_P2;PMS_P1;PMS_P2;Temp;Humidity;BMP_temperature;BMP_pressure;BME280_temperature;BME280_humidity;BME280_pressure;Samples;Min_cycle;Max_cycle;Signal;HPM_P1;HPM_P2
2021/11/30 00:02:08;;;;;;;17.70;14.00;;;21.40;99.90;;;;;;5033399;28;20097;-75
2021/11/30 00:04:36;;;;;;;15.65;13.98;;;21.60;99.90;;;;;;5033212;28;20036;-74
2021/11/30 00:07:03;;;;;;;16.10;13.88;;;21.80;99.90;;;;;;5015910;28;20034;-74
2021/11/30 00:12:06;;;;;;;23.35;13.98;;;21.80;99.90;;;;;;5033162;28;20087;-75
2021/11/30 00:14:35;;;;;;;14.38;12.98;;;21.80;99.90;;;;;;5031632;28;20037;-75
2021/11/30 00:17:04;;;;;;;16.17;14.47;;;22.00;99.90;;;;;;5033085;28;20033;-75
2021/11/30 00:19:32;;;;;;;16.45;13.50;;;22.10;99.90;;;;;;5033434;28;20025;-74
2021/11/30 00:21:59;;;;;;;20.13;13.77;;;21.80;99.90;;;;;;5033463;28;20030;-74
2021/11/30 00:24:29;;;;;;;15.30;13.55;;;21.60;99.90;;;;;;5032392;28;20029;-72
2021/11/30 00:26:58;;;;;;;15.25;13.85;;;21.60;99.90;;;;;;5033669;28;20045;-75
2021/11/30 00:29:25;;;;;;;16.35;14.07;;;21.60;99.90;;;;;;5034278;28;20030;-75
2021/11/30 00:31:54;;;;;;;14.25;12.93;;;21.40;99.90;;;;;;5036464;28;20029;-75
2021/11/30 00:34:22;;;;;;;14.57;13.45;;;21.40;99.90;;;;;;5037408;28;20058;-75
2021/11/30 00:36:52;;;;;;;15.68;14.25;;;21.50;99.90;;;;;;5037325;28;20025;-75
2021/11/30 00:39:20;;;;;;;14.32;13.02;;;21.60;99.90;;;;;;5037497;28;20375;-75
2021/11/30 00:41:53;;;;;;;14.55;13.45;;;21.70;99.90;;;;;;5036074;28;20025;-75
2021/11/30 00:44:33;;;;;;;15.55;14.30;;;21.70;99.90;;;;;;5035559;28;20053;-75
2021/11/30 00:47:02;;;;;;;15.27;14.02;;;21.60;99.90;;;;;;5035896;28;20026;-75
2021/11/30 00:49:29;;;;;;;16.05;14.77;;;21.80;99.90;;;;;;5035383;28;20028;-74
2021/11/30 00:51:58;;;;;;;15.68;14.48;;;22.00;99.90;;;;;;5036797;28;20144;-75
2021/11/30 00:54:28;;;;;;;15.27;14.07;;;22.10;99.90;;;;;;5036653;28;20075;-75
2021/11/30 00:56:56;;;;;;;16.30;14.97;;;22.40;99.90;;;;;;5037241;28;20025;-75
2021/11/30 00:59:27;;;;;;;15.65;14.25;;;22.60;99.90;;;;;;5036121;28;20026;-76
2021/11/30 01:01:56;;;;;;;15.20;13.88;;;22.70;99.90;;;;;;5037645;28;20470;-77
2021/11/30 01:04:24;;;;;;;15.65;14.07;;;22.70;99.90;;;;;;5037126;28;20029;-78
2021/11/30 01:06:52;;;;;;;14.30;13.10;;;22.60;99.90;;;;;;5037454;28;20021;-78
2021/11/30 01:09:19;;;;;;;16.02;14.90;;;22.40;99.90;;;;;;5035866;28;20021;-77
2021/11/30 01:11:46;;;;;;;15.38;14.07;;;22.60;99.90;;;;;;5035908;28;20018;-77
2021/11/30 01:14:14;;;;;;;14.43;13.32;;;22.50;99.90;;;;;;5037232;28;20018;-78
2021/11/30 01:16:41;;;;;;;17.35;15.70;;;22.50;99.90;;;;;;5036123;28;20029;-78
2021/11/30 01:19:09;;;;;;;14.95;13.95;;;22.60;99.90;;;;;;5037379;28;20036;-78
2021/11/30 01:21:37;;;;;;;14.65;13.45;;;22.70;99.90;;;;;;5035781;28;20028;-79
2021/11/30 01:24:07;;;;;;;14.35;13.20;;;22.90;99.90;;;;;;5036823;28;20413;-78
2021/11/30 01:26:35;;;;;;;14.23;13.23;;;23.00;99.90;;;;;;5036702;28;20057;-78
2021/11/30 01:29:03;;;;;;;14.68;13.65;;;22.90;99.90;;;;;;5036535;28;20108;-78
2021/11/30 01:31:31;;;;;;;15.38;14.07;;;22.90;99.90;;;;;;5035663;28;20006;-79
2021/11/30 01:33:58;;;;;;;13.98;12.98;;;22.80;99.90;;;;;;5037194;28;20037;-79
2021/11/30 01:36:26;;;;;;;15.55;14.20;;;22.80;99.90;;;;;;5036072;28;20036;-78
2021/11/30 01:38:53;;;;;;;15.50;14.13;;;22.80;99.90;;;;;;5037547;28;20482;-78
2021/11/30 01:41:21;;;;;;;15.38;14.10;;;22.60;99.90;;;;;;5036828;28;20514;-78
2021/11/30 01:43:50;;;;;;;15.45;14.15;;;22.50;99.90;;;;;;5035962;28;20045;-78
2021/11/30 01:51:53;;;;;;;17.55;15.85;;;22.60;99.90;;;;;;5034318;28;20164;-77
2021/11/30 01:54:20;;;;;;;17.20;15.80;;;22.40;99.90;;;;;;5033783;28;20048;-77
2021/11/30 01:56:47;;;;;;;17.55;16.23;;;22.30;99.90;;;;;;5034544;28;20379;-78
2021/11/30 01:59:15;;;;;;;16.90;15.90;;;22.30;99.90;;;;;;5035222;28;20029;-77
2021/11/30 02:01:42;;;;;;;17.30;15.95;;;22.20;99.90;;;;;;5035539;28;20022;-77
2021/11/30 02:04:10;;;;;;;17.70;16.40;;;21.90;99.90;;;;;;5034466;28;20482;-77
2021/11/30 02:06:37;;;;;;;18.48;17.17;;;21.70;99.90;;;;;;5037023;28;20029;-77
2021/11/30 02:09:05;;;;;;;17.92;16.58;;;21.70;99.90;;;;;;5037124;28;20013;-78
2021/11/30 02:11:32;;;;;;;18.25;16.95;;;21.60;99.90;;;;;;5037042;28;20029;-79
2021/11/30 02:14:00;;;;;;;17.33;16.30;;;21.90;99.90;;;;;;5036247;28;20437;-79
2021/11/30 02:16:28;;;;;;;18.38;17.27;;;22.10;99.90;;;;;;5036721;28;20162;-78
2021/11/30 02:19:00;;;;;;;17.85;16.70;;;22.50;99.90;;;;;;5036627;28;20028;-78
2021/11/30 02:21:35;;;;;;;19.02;17.83;;;22.70;99.90;;;;;;5036510;28;20033;-78
2021/11/30 02:24:03;;;;;;;19.83;18.17;;;22.70;99.90;;;;;;5034546;28;20052;-78
2021/11/30 02:26:34;;;;;;;18.58;17.40;;;22.50;99.90;;;;;;5036249;28;20021;-78
2021/11/30 02:29:01;;;;;;;;;;;22.40;99.90;;;;;;5035284;28;20168;-77
2021/11/30 02:31:35;;;;;;;17.92;16.92;;;22.30;99.90;;;;;;5034147;28;20369;-78
2021/11/30 02:34:05;;;;;;;17.27;16.35;;;22.20;99.90;;;;;;5036261;28;20034;-79
2021/11/30 02:36:49;;;;;;;17.42;16.55;;;22.30;99.90;;;;;;5036151;28;20022;-78
2021/11/30 02:39:19;;;;;;;17.33;16.38;;;22.40;99.90;;;;;;5035192;28;20556;-79
2021/11/30 02:41:48;;;;;;;17.23;16.33;;;22.40;99.90;;;;;;5035552;28;20113;-78
2021/11/30 02:44:17;;;;;;;18.70;17.50;;;22.10;99.90;;;;;;5035474;28;20148;-77
2021/11/30 02:46:47;;;;;;;18.80;17.70;;;21.90;99.90;;;;;;5035508;28;20028;-77
2021/11/30 02:49:17;;;;;;;19.80;18.70;;;21.80;99.90;;;;;;5035453;28;20014;-77
2021/11/30 02:51:49;;;;;;;;;;;21.70;99.90;;;;;;5034140;28;20544;-77
2021/11/30 02:54:19;;;;;;;18.45;17.48;;;21.60;99.90;;;;;;5034259;28;19951;-78
2021/11/30 02:56:56;;;;;;;20.92;19.60;;;21.60;99.90;;;;;;5034168;28;20021;-78
2021/11/30 02:59:25;;;;;;;20.00;18.95;;;21.60;99.90;;;;;;5033712;28;20095;-79
2021/11/30 03:02:09;;;;;;;21.33;19.93;;;21.60;99.90;;;;;;5033810;28;20078;-78
2021/11/30 03:04:37;;;;;;;22.08;20.67;;;21.50;99.90;;;;;;5034510;28;20544;-78
2021/11/30 03:07:09;;;;;;;21.00;19.77;;;21.60;99.90;;;;;;5034807;28;20018;-77
2021/11/30 03:09:37;;;;;;;21.85;20.45;;;21.60;99.90;;;;;;5034924;28;20101;-77
2021/11/30 03:12:04;;;;;;;21.00;19.80;;;21.70;99.90;;;;;;5033265;28;20151;-77
2021/11/30 03:14:33;;;;;;;21.52;20.13;;;21.70;99.90;;;;;;5034595;28;20486;-77
2021/11/30 03:17:02;;;;;;;21.65;20.38;;;21.90;99.90;;;;;;5033526;28;20491;-78
2021/11/30 03:19:30;;;;;;;20.95;19.77;;;21.90;99.90;;;;;;5033682;28;20028;-78
2021/11/30 03:21:59;;;;;;;20.80;19.60;;;22.10;99.90;;;;;;5034474;28;20021;-78
2021/11/30 03:24:27;;;;;;;20.45;19.35;;;22.20;99.90;;;;;;5035285;28;20389;-79
2021/11/30 03:26:55;;;;;;;20.73;19.73;;;22.30;99.90;;;;;;5033709;28;20028;-78
2021/11/30 03:29:23;;;;;;;20.45;19.25;;;22.40;99.90;;;;;;5034416;28;20112;-78
2021/11/30 03:32:12;;;;;;;19.83;18.83;;;22.30;99.90;;;;;;5034316;28;20356;-78
2021/11/30 03:34:40;;;;;;;19.20;18.30;;;22.10;99.90;;;;;;5033521;28;20117;-77
2021/11/30 03:37:07;;;;;;;19.98;18.77;;;22.10;99.90;;;;;;5033451;28;20421;-78
2021/11/30 03:39:36;;;;;;;17.75;16.95;;;22.20;99.90;;;;;;5033441;28;20057;-78
2021/11/30 03:42:03;;;;;;;18.00;17.10;;;22.30;99.90;;;;;;5033349;28;20044;-78
2021/11/30 03:44:31;;;;;;;18.70;17.90;;;22.30;99.90;;;;;;5033990;28;20041;-78
2021/11/30 03:46:59;;;;;;;17.75;17.02;;;22.20;99.90;;;;;;5033472;28;20017;-77
2021/11/30 03:49:27;;;;;;;17.67;16.85;;;22.30;99.90;;;;;;5034332;28;20474;-77
2021/11/30 03:51:55;;;;;;;17.60;16.80;;;22.30;99.90;;;;;;5033301;28;20112;-77
2021/11/30 03:54:23;;;;;;;17.70;16.90;;;22.30;99.90;;;;;;5033051;28;20061;-77
2021/11/30 03:56:50;;;;;;;17.00;16.30;;;22.50;99.90;;;;;;5033313;28;20025;-79
2021/11/30 03:59:18;;;;;;;17.20;16.50;;;22.50;99.90;;;;;;5034615;28;20112;-77
2021/11/30 04:01:46;;;;;;;16.48;15.68;;;22.60;99.90;;;;;;5034714;28;20018;-77
2021/11/30 04:04:21;;;;;;;15.75;15.15;;;22.60;99.90;;;;;;5034887;28;20034;-77
2021/11/30 04:06:50;;;;;;;15.77;15.07;;;22.70;99.90;;;;;;5037101;28;20021;-77
2021/11/30 04:09:19;;;;;;;15.57;14.98;;;23.00;99.90;;;;;;5037078;28;20120;-76
2021/11/30 04:11:47;;;;;;;14.55;14.05;;;23.20;99.90;;;;;;5036635;28;20034;-77
2021/11/30 04:14:14;;;;;;;15.40;14.80;;;23.40;99.90;;;;;;5037782;28;20036;-76
2021/11/30 04:16:42;;;;;;;15.68;15.07;;;23.70;99.90;;;;;;5038306;28;20025;-77
2021/11/30 04:19:10;;;;;;;14.82;14.23;;;23.70;99.90;;;;;;5038075;28;20023;-78
2021/11/30 04:21:37;;;;;;;13.90;13.40;;;23.80;99.90;;;;;;5038594;28;20018;-77
2021/11/30 04:24:05;;;;;;;13.30;12.80;;;23.80;99.90;;;;;;5038192;28;20029;-78
2021/11/30 04:26:32;;;;;;;13.70;13.20;;;23.80;99.90;;;;;;5037066;28;20033;-77
2021/11/30 04:29:00;;;;;;;14.20;13.60;;;23.80;99.90;;;;;;5038691;28;20018;-77
2021/11/30 04:31:29;;;;;;;13.38;12.88;;;23.70;99.90;;;;;;5036705;28;20030;-77
2021/11/30 04:33:57;;;;;;;13.70;13.20;;;23.70;99.90;;;;;;5036875;28;20035;-76
2021/11/30 04:36:24;;;;;;;14.63;14.02;;;23.50;99.90;;;;;;5037423;28;20048;-77
2021/11/30 04:38:54;;;;;;;14.18;13.57;;;23.30;99.90;;;;;;5037276;28;20053;-79
2021/11/30 04:41:21;;;;;;;14.80;14.20;;;23.40;99.90;;;;;;5038002;28;20029;-79
2021/11/30 04:43:49;;;;;;;14.38;13.88;;;23.50;99.90;;;;;;5036459;28;20049;-78
2021/11/30 04:46:24;;;;;;;14.32;13.82;;;23.30;99.90;;;;;;5038219;28;20025;-78
2021/11/30 04:49:15;;;;;;;14.98;14.38;;;23.00;99.90;;;;;;5038538;28;20018;-77
2021/11/30 04:51:40;;;;;;;14.23;13.70;;;22.80;99.90;;;;;;5037707;28;20038;-78
2021/11/30 04:54:07;;;;;;;14.18;13.68;;;22.90;99.90;;;;;;5037238;28;20030;-78
2021/11/30 04:56:35;;;;;;;15.13;14.48;;;22.80;99.90;;;;;;5036286;28;20027;-78
2021/11/30 04:59:02;;;;;;;15.00;14.30;;;22.60;99.90;;;;;;5020527;28;20044;-77
2021/11/30 05:01:30;;;;;;;15.52;14.82;;;22.50;99.90;;;;;;5037432;28;20084;-78
2021/11/30 05:03:59;;;;;;;15.40;14.70;;;22.30;99.90;;;;;;5037524;28;20114;-78
2021/11/30 05:06:26;;;;;;;15.38;14.68;;;22.20;99.90;;;;;;5035898;28;20037;-78
2021/11/30 05:08:54;;;;;;;16.83;16.00;;;22.30;99.90;;;;;;5036318;28;20505;-77
2021/11/30 05:11:22;;;;;;;15.50;14.80;;;22.70;99.90;;;;;;5037852;28;20386;-77
2021/11/30 05:13:49;;;;;;;15.38;14.57;;;22.80;99.90;;;;;;5036361;28;20113;-78
2021/11/30 05:16:16;;;;;;;15.75;14.88;;;22.60;99.90;;;;;;5037801;28;20498;-78
2021/11/30 05:18:44;;;;;;;14.73;13.95;;;22.60;99.90;;;;;;5037637;28;20021;-78
2021/11/30 05:21:11;;;;;;;15.68;14.80;;;22.60;99.90;;;;;;5037673;28;20025;-76
2021/11/30 05:23:41;;;;;;;15.48;14.73;;;22.60;99.90;;;;;;5037565;28;20494;-77
2021/11/30 05:26:09;;;;;;;16.02;15.32;;;22.50;99.90;;;;;;5036251;28;20077;-77
2021/11/30 05:28:40;;;;;;;16.08;15.18;;;22.50;99.90;;;;;;5037467;28;20083;-77
2021/11/30 05:31:09;;;;;;;15.40;14.40;;;22.40;99.90;;;;;;5037137;28;20014;-76
2021/11/30 05:33:37;;;;;;;16.50;15.60;;;22.20;99.90;;;;;;5036151;28;20033;-77
2021/11/30 05:36:06;;;;;;;16.48;15.68;;;22.20;99.90;;;;;;5037004;28;20028;-77
2021/11/30 05:38:34;;;;;;;15.75;15.00;;;22.10;99.90;;;;;;5035496;28;20021;-77
2021/11/30 05:41:02;;;;;;;16.50;15.80;;;22.10;99.90;;;;;;5035360;28;20025;-76
2021/11/30 05:43:29;;;;;;;16.63;15.75;;;22.10;99.90;;;;;;5036193;28;20410;-78
2021/11/30 05:45:57;;;;;;;16.17;15.38;;;22.10;99.90;;;;;;5036886;28;20021;-78
2021/11/30 05:48:24;;;;;;;17.60;16.70;;;22.10;99.90;;;;;;5037270;28;20386;-76
2021/11/30 05:50:52;;;;;;;17.17;16.20;;;22.00;99.90;;;;;;5036333;28;20017;-76
2021/11/30 05:53:19;;;;;;;16.80;15.80;;;21.90;99.90;;;;;;5035474;28;20033;-77
2021/11/30 05:55:53;;;;;;;17.98;17.05;;;21.90;99.90;;;;;;5035583;28;20080;-77
2021/11/30 05:58:21;;;;;;;17.30;16.50;;;21.90;99.90;;;;;;5035580;28;20496;-76
2021/11/30 06:00:49;;;;;;;17.10;16.30;;;21.70;99.90;;;;;;5037186;28;20021;-78
2021/11/30 06:03:30;;;;;;;17.08;16.13;;;21.80;99.90;;;;;;5036549;28;20022;-76
2021/11/30 06:05:56;;;;;;;;;;;21.70;99.90;;;;;;5036964;28;20076;-78
2021/11/30 06:08:24;;;;;;;17.02;16.23;;;21.70;99.90;;;;;;5035461;28;19916;-79
2021/11/30 06:10:51;;;;;;;16.60;15.90;;;21.70;99.90;;;;;;5035069;28;20043;-77
2021/11/30 06:13:19;;;;;;;16.40;15.60;;;21.70;99.90;;;;;;5036402;28;20025;-78
2021/11/30 06:15:46;;;;;;;17.70;16.65;;;21.60;99.90;;;;;;5036395;28;20025;-76
2021/11/30 06:18:14;;;;;;;17.52;16.55;;;21.60;99.90;;;;;;5034944;28;20029;-77
2021/11/30 06:20:41;;;;;;;17.58;16.60;;;21.60;99.90;;;;;;5034300;28;20067;-76
2021/11/30 06:23:08;;;;;;;16.60;15.63;;;21.50;99.90;;;;;;5034147;28;20390;-76
2021/11/30 06:25:36;;;;;;;16.42;15.65;;;21.50;99.90;;;;;;5035532;28;20021;-78
2021/11/30 06:28:03;;;;;;;17.10;16.23;;;21.50;99.90;;;;;;5033156;28;20022;-77
2021/11/30 06:30:31;;;;;;;17.42;16.52;;;21.60;99.90;;;;;;5034659;28;20420;-77
2021/11/30 06:32:58;;;;;;;16.90;16.00;;;21.50;99.90;;;;;;5035250;28;20018;-77
2021/11/30 06:35:26;;;;;;;17.90;17.00;;;21.60;99.90;;;;;;5035717;28;20022;-78
2021/11/30 06:37:53;;;;;;;18.08;17.17;;;21.50;99.90;;;;;;5035868;28;20036;-78
2021/11/30 06:40:21;;;;;;;17.48;16.58;;;21.40;99.90;;;;;;5035959;28;20100;-77
2021/11/30 06:42:50;;;;;;;18.00;17.10;;;21.40;99.90;;;;;;5034336;28;20041;-78
2021/11/30 06:45:17;;;;;;;18.55;17.52;;;21.40;99.90;;;;;;5017658;28;20451;-78
2021/11/30 06:47:44;;;;;;;18.25;17.25;;;21.20;99.90;;;;;;5034726;28;20018;-76
2021/11/30 06:50:12;;;;;;;17.80;17.00;;;21.20;99.90;;;;;;5035010;28;20072;-74
2021/11/30 06:52:40;;;;;;;18.00;17.30;;;21.10;99.90;;;;;;5033354;28;20083;-76
2021/11/30 06:55:09;;;;;;;17.90;16.90;;;21.00;99.90;;;;;;5034646;28;20072;-77
2021/11/30 06:57:36;;;;;;;17.92;17.02;;;21.00;99.90;;;;;;5034590;28;20449;-75
2021/11/30 07:00:10;;;;;;;17.55;16.85;;;20.90;99.90;;;;;;5034404;28;20018;-75
2021/11/30 07:02:37;;;;;;;17.67;16.83;;;20.90;99.90;;;;;;5033011;28;20104;-75
2021/11/30 07:05:18;;;;;;;17.70;17.00;;;20.90;99.90;;;;;;5034693;28;20022;-75
2021/11/30 07:15:33;;;;;;;19.33;18.42;;;20.70;99.90;;;;;;5035081;28;20037;-75
2021/11/30 07:18:01;;;;;;;19.75;18.85;;;20.60;99.90;;;;;;5033143;28;20078;-75
2021/11/30 07:20:29;;;;;;;19.85;18.85;;;20.70;99.90;;;;;;5034542;28;20026;-75
2021/11/30 07:22:57;;;;;;;21.17;20.17;;;20.70;99.90;;;;;;5033997;28;20025;-74
2021/11/30 07:25:25;;;;;;;20.75;19.85;;;20.60;99.90;;;;;;5032806;28;20600;-73
2021/11/30 07:27:54;;;;;;;21.33;20.33;;;20.60;99.90;;;;;;5032829;28;20501;-75
2021/11/30 07:30:22;;;;;;;21.98;20.98;;;20.60;99.90;;;;;;5034821;28;20022;-77
2021/11/30 07:32:50;;;;;;;20.92;19.83;;;20.60;99.90;;;;;;5017701;28;20057;-78
2021/11/30 07:35:20;;;;;;;21.45;20.35;;;20.50;99.90;;;;;;5035024;28;20021;-78
2021/11/30 07:37:49;;;;;;;21.80;20.70;;;20.50;99.90;;;;;;5033611;28;20449;-78
2021/11/30 07:40:17;;;;;;;21.05;20.05;;;20.50;99.90;;;;;;5033054;28;20067;-75
2021/11/30 07:42:44;;;;;;;21.60;20.33;;;20.40;99.90;;;;;;5032600;28;20084;-76
2021/11/30 07:45:13;;;;;;;21.23;20.13;;;20.40;99.90;;;;;;5034320;28;20470;-74
2021/11/30 07:47:41;;;;;;;22.48;21.27;;;20.40;99.90;;;;;;5033077;28;20049;-74
2021/11/30 07:50:09;;;;;;;22.95;21.65;;;20.30;99.90;;;;;;5033879;28;20033;-74
2021/11/30 07:52:41;;;;;;;21.73;20.63;;;20.40;99.90;;;;;;5032672;28;20466;-77
2021/11/30 07:55:17;;;;;;;21.98;20.80;;;20.40;99.90;;;;;;5033009;28;20064;-77
2021/11/30 07:57:46;;;;;;;22.80;21.50;;;20.30;99.90;;;;;;5032803;28;20021;-77
2021/11/30 08:00:16;;;;;;;22.00;20.90;;;20.30;99.90;;;;;;5033226;28;20074;-76
2021/11/30 08:02:44;;;;;;;22.52;21.50;;;20.30;99.90;;;;;;5032869;28;20133;-76
2021/11/30 08:05:12;;;;;;;23.23;21.95;;;20.30;99.90;;;;;;5033669;28;20104;-76
2021/11/30 08:07:40;;;;;;;22.88;21.67;;;20.20;99.90;;;;;;5033097;28;20021;-78
2021/11/30 08:10:13;;;;;;;23.20;21.65;;;20.20;99.90;;;;;;5032899;28;20498;-76
2021/11/30 08:12:41;;;;;;;23.92;22.63;;;20.20;99.90;;;;;;5033122;28;20394;-76
2021/11/30 08:15:10;;;;;;;23.55;22.08;;;20.20;99.90;;;;;;5016660;28;20395;-77
2021/11/30 08:17:38;;;;;;;23.63;22.33;;;20.20;99.90;;;;;;5033763;28;20540;-78
2021/11/30 08:20:06;;;;;;;23.05;21.75;;;20.20;99.90;;;;;;5034815;28;20528;-78
2021/11/30 08:22:35;;;;;;;23.60;22.20;;;20.20;99.90;;;;;;5034946;28;20033;-78
2021/11/30 08:25:03;;;;;;;23.50;21.88;;;20.20;99.90;;;;;;5033423;28;20080;-79
2021/11/30 08:27:32;;;;;;;23.27;21.88;;;20.20;99.90;;;;;;5034983;28;20048;-79
2021/11/30 08:29:59;;;;;;;23.35;22.05;;;20.10;99.90;;;;;;5033349;28;20071;-79
2021/11/30 08:32:28;;;;;;;23.65;22.35;;;20.00;99.90;;;;;;5033732;28;20036;-80
2021/11/30 08:34:57;;;;;;;23.92;22.42;;;20.00;99.90;;;;;;5034271;28;20053;-82
2021/11/30 08:37:25;;;;;;;23.75;22.33;;;20.10;99.90;;;;;;5034662;28;20081;-79
2021/11/30 08:39:54;;;;;;;24.27;22.55;;;20.00;99.90;;;;;;5034850;28;20022;-80
2021/11/30 08:42:22;;;;;;;23.20;22.00;;;20.00;99.90;;;;;;5034907;28;20100;-80
2021/11/30 08:44:51;;;;;;;23.10;21.90;;;19.90;99.90;;;;;;5034762;28;20053;-79
2021/11/30 08:47:21;;;;;;;22.83;21.52;;;19.90;99.90;;;;;;5033323;28;20116;-76
2021/11/30 08:49:49;;;;;;;23.30;21.90;;;19.80;99.90;;;;;;5034451;28;20478;-78
2021/11/30 08:52:21;;;;;;;22.42;21.23;;;19.90;99.90;;;;;;5035813;28;20036;-78
2021/11/30 08:54:49;;;;;;;23.20;21.90;;;19.80;99.90;;;;;;5037418;28;20029;-79
2021/11/30 08:57:16;;;;;;;23.30;21.98;;;19.80;99.90;;;;;;5037487;28;20029;-78
2021/11/30 08:59:44;;;;;;;22.95;21.58;;;19.80;99.90;;;;;;5037486;28;20021;-77
2021/11/30 09:02:12;;;;;;;23.02;21.75;;;19.80;99.90;;;;;;5037728;28;20025;-80
2021/11/30 09:04:39;;;;;;;22.60;21.40;;;19.80;99.90;;;;;;5037901;28;20018;-79
2021/11/30 09:07:06;;;;;;;22.77;21.48;;;19.80;99.90;;;;;;5036694;28;20025;-79
2021/11/30 09:09:34;;;;;;;23.50;22.10;;;19.70;99.90;;;;;;5037854;28;20474;-79
2021/11/30 09:12:02;;;;;;;23.10;21.60;;;19.50;99.90;;;;;;5036476;28;20089;-79
2021/11/30 09:14:29;;;;;;;23.63;22.20;;;19.80;99.90;;;;;;5037038;28;20085;-79
2021/11/30 09:16:57;;;;;;;23.95;22.45;;;19.70;99.90;;;;;;5036818;28;20025;-78
2021/11/30 09:19:25;;;;;;;24.00;22.38;;;19.80;99.90;;;;;;5035992;28;20043;-77
2021/11/30 09:21:52;;;;;;;23.45;22.02;;;19.80;99.90;;;;;;5037426;28;20052;-77
2021/11/30 09:24:20;;;;;;;22.50;21.30;;;19.80;99.90;;;;;;5035183;28;20029;-77
2021/11/30 09:26:48;;;;;;;22.88;21.67;;;19.70;99.90;;;;;;5035376;28;20022;-77
2021/11/30 09:29:16;;;;;;;22.85;21.67;;;19.70;99.90;;;;;;5037006;28;20032;-77
2021/11/30 09:31:43;;;;;;;22.88;21.58;;;19.70;99.90;;;;;;5036643;28;20474;-76
2021/11/30 09:34:11;;;;;;;22.70;21.30;;;19.70;99.90;;;;;;5036390;28;20022;-78
2021/11/30 09:36:42;;;;;;;22.17;20.88;;;19.70;99.90;;;;;;5037917;28;20499;-77
2021/11/30 09:39:09;;;;;;;22.23;21.02;;;19.70;99.90;;;;;;5037313;28;20104;-77
2021/11/30 09:41:37;;;;;;;22.15;20.85;;;19.80;99.90;;;;;;5037255;28;20441;-76
2021/11/30 09:44:06;;;;;;;22.30;20.95;;;19.80;99.90;;;;;;5035441;28;20041;-75
2021/11/30 09:46:34;;;;;;;22.10;20.70;;;19.70;99.90;;;;;;5036150;28;20033;-76
2021/11/30 09:49:02;;;;;;;21.65;20.42;;;19.80;99.90;;;;;;5035538;28;20071;-75
2021/11/30 09:51:30;;;;;;;22.23;20.80;;;19.80;99.90;;;;;;5035988;28;20021;-75
2021/11/30 09:53:57;;;;;;;22.40;20.90;;;19.80;99.90;;;;;;5036253;28;20052;-75
2021/11/30 09:56:25;;;;;;;22.38;20.95;;;19.70;99.90;;;;;;5036563;28;20048;-74
2021/11/30 09:58:53;;;;;;;22.23;20.92;;;19.70;99.90;;;;;;5036356;28;20021;-73
2021/11/30 10:01:20;;;;;;;22.08;20.63;;;19.70;99.90;;;;;;5036142;28;20113;-73
2021/11/30 10:03:48;;;;;;;22.20;20.80;;;19.70;99.90;;;;;;5036109;28;20083;-73
2021/11/30 10:06:15;;;;;;;22.65;21.25;;;19.70;99.90;;;;;;5036156;28;20017;-74
2021/11/30 10:08:45;;;;;;;21.73;20.48;;;19.60;99.90;;;;;;5036026;28;20095;-74
2021/11/30 10:11:36;;;;;;;22.10;20.70;;;19.60;99.90;;;;;;5036300;28;20036;-75
2021/11/30 10:14:15;;;;;;;22.10;20.70;;;19.60;99.90;;;;;;5035126;28;20056;-74
2021/11/30 10:17:04;;;;;;;21.65;20.38;;;19.60;99.90;;;;;;5036279;28;20036;-74
2021/11/30 10:19:32;;;;;;;21.95;20.67;;;19.60;99.90;;;;;;5034483;28;20034;-74
2021/11/30 10:21:59;;;;;;;22.25;20.95;;;19.60;99.90;;;;;;5034634;28;20088;-74
2021/11/30 10:24:26;;;;;;;22.15;20.73;;;19.60;99.90;;;;;;5035658;28;20086;-74
2021/11/30 10:26:56;;;;;;;21.80;20.50;;;19.60;99.90;;;;;;5034205;28;20029;-74
2021/11/30 10:29:24;;;;;;;21.63;20.30;;;19.60;99.90;;;;;;5035594;28;20387;-73
2021/11/30 10:31:54;;;;;;;21.08;19.88;;;19.60;99.90;;;;;;5033921;28;20021;-74
2021/11/30 10:34:31;;;;;;;20.42;19.25;;;19.60;99.90;;;;;;5033844;28;20029;-73
2021/11/30 10:37:07;;;;;;;20.50;19.30;;;19.70;99.90;;;;;;5034989;28;20483;-73
2021/11/30 10:39:39;;;;;;;20.50;19.25;;;19.60;99.90;;;;;;5034207;28;20517;-75
2021/11/30 10:42:22;;;;;;;20.75;19.55;;;19.70;99.90;;;;;;5035373;28;20434;-75
2021/11/30 10:44:55;;;;;;;20.98;19.55;;;19.70;99.90;;;;;;5034326;28;20032;-76
2021/11/30 10:47:27;;;;;;;20.73;19.38;;;19.60;99.90;;;;;;5034251;28;20021;-75
2021/11/30 10:50:01;;;;;;;21.02;19.58;;;19.60;99.90;;;;;;5035681;28;20026;-75
2021/11/30 10:52:32;;;;;;;20.60;19.30;;;19.60;99.90;;;;;;5034242;28;20064;-74
2021/11/30 10:55:12;;;;;;;20.88;19.38;;;19.60;99.90;;;;;;5034285;28;20022;-76
2021/11/30 10:57:40;;;;;;;21.33;19.75;;;19.60;99.90;;;;;;5035605;28;20049;-76
2021/11/30 11:00:15;;;;;;;21.60;20.00;;;19.60;99.90;;;;;;5036321;28;20116;-77
2021/11/30 11:02:53;;;;;;;21.45;19.95;;;19.60;99.90;;;;;;5034068;28;20036;-75
2021/11/30 11:05:26;;;;;;;21.98;20.23;;;19.60;99.90;;;;;;5035494;28;20374;-75
2021/11/30 11:08:14;;;;;;;22.02;20.40;;;19.50;99.90;;;;;;5034415;28;20029;-75
2021/11/30 11:10:58;;;;;;;21.70;19.90;;;19.50;99.90;;;;;;5033838;28;20091;-75
2021/11/30 11:13:38;;;;;;;21.42;20.05;;;19.50;99.90;;;;;;5033954;28;20052;-75
2021/11/30 11:16:08;;;;;;;21.67;20.27;;;19.40;99.90;;;;;;5035562;28;20032;-75
2021/11/30 11:18:38;;;;;;;21.83;20.13;;;19.50;99.90;;;;;;5035192;28;20029;-75
2021/11/30 11:21:15;;;;;;;21.40;19.87;;;19.50;99.90;;;;;;5034730;28;20263;-74
2021/11/30 11:23:44;;;;;;;21.58;19.98;;;19.50;99.90;;;;;;5034610;28;20541;-75
2021/11/30 11:26:17;;;;;;;21.50;19.97;;;19.50;99.90;;;;;;5033615;28;20029;-75
2021/11/30 11:28:46;;;;;;;21.80;20.15;;;19.50;99.90;;;;;;5033899;28;20021;-75
2021/11/30 11:31:13;;;;;;;22.20;20.48;;;19.50;99.90;;;;;;5034035;28;20056;-75
2021/11/30 11:33:41;;;;;;;22.15;20.35;;;19.50;99.90;;;;;;5033845;28;20033;-75
2021/11/30 11:36:08;;;;;;;22.73;21.00;;;19.50;99.90;;;;;;5033509;28;20025;-75
2021/11/30 11:38:36;;;;;;;22.20;20.48;;;19.50;99.90;;;;;;5033297;28;20036;-75
2021/11/30 11:41:03;;;;;;;23.15;21.27;;;19.50;99.90;;;;;;5033518;28;20033;-75
2021/11/30 11:43:31;;;;;;;21.90;20.48;;;19.50;99.90;;;;;;5033548;28;20088;-74
2021/11/30 11:45:59;;;;;;;22.63;20.90;;;19.50;99.90;;;;;;5035061;28;20068;-75
2021/11/30 11:48:29;;;;;;;21.73;20.35;;;19.50;99.90;;;;;;5034850;28;20479;-76
2021/11/30 11:51:01;;;;;;;22.40;20.70;;;19.50;99.90;;;;;;5033905;28;20025;-76
2021/11/30 11:53:34;;;;;;;21.83;20.05;;;19.50;99.90;;;;;;5035005;28;20431;-76
2021/11/30 11:56:33;;;;;;;21.48;20.00;;;19.40;99.90;;;;;;5033343;28;20030;-75
2021/11/30 11:59:20;;;;;;;21.55;19.95;;;19.50;99.90;;;;;;5033634;28;20505;-75
2021/11/30 12:01:50;;;;;;;21.83;20.15;;;19.40;99.90;;;;;;5034824;28;20022;-75
2021/11/30 12:04:19;;;;;;;21.80;19.92;;;19.40;99.90;;;;;;5034625;28;20041;-75
2021/11/30 12:07:02;;;;;;;21.92;20.25;;;19.40;99.90;;;;;;5033678;28;20037;-75
2021/11/30 12:09:33;;;;;;;21.95;20.27;;;19.40;99.90;;;;;;5034756;28;20036;-75
2021/11/30 12:12:23;;;;;;;21.67;20.08;;;19.30;99.90;;;;;;5033774;28;20455;-75
2021/11/30 12:15:01;;;;;;;22.60;20.85;;;19.30;99.90;;;;;;5033494;28;20101;-76
2021/11/30 12:17:30;;;;;;;21.52;20.08;;;19.30;99.90;;;;;;5033307;28;20037;-76
2021/11/30 12:19:57;;;;;;;22.52;21.02;;;19.30;99.90;;;;;;5034715;28;20025;-76
2021/11/30 12:22:49;;;;;;;21.73;20.13;;;19.30;99.90;;;;;;5033658;28;20029;-76
2021/11/30 12:25:29;;;;;;;22.35;20.60;;;19.30;99.90;;;;;;5033616;28;20560;-76
2021/11/30 12:28:05;;;;;;;21.75;20.08;;;19.30;99.90;;;;;;5037363;28;20087;-76
2021/11/30 12:30:46;;;;;;;21.80;20.27;;;19.30;99.90;;;;;;5038634;28;20029;-76
2021/11/30 12:33:33;;;;;;;22.30;20.70;;;19.30;99.90;;;;;;5038402;28;20068;-76
2021/11/30 12:36:06;;;;;;;22.88;21.33;;;19.30;99.90;;;;;;5037265;28;20030;-76
2021/11/30 12:38:47;;;;;;;22.30;20.75;;;19.30;99.90;;;;;;5036896;28;20401;-76
2021/11/30 12:41:30;;;;;;;21.42;19.75;;;19.40;99.90;;;;;;5038208;28;20018;-76
2021/11/30 12:44:10;;;;;;;21.13;19.83;;;19.40;99.90;;;;;;5036756;28;20050;-77
2021/11/30 12:46:43;;;;;;;21.45;19.92;;;19.30;99.90;;;;;;5037209;28;20033;-77
2021/11/30 12:49:33;;;;;;;21.67;19.98;;;19.30;99.90;;;;;;5036623;28;20486;-77
2021/11/30 12:52:06;;;;;;;21.60;19.90;;;19.30;99.90;;;;;;5036367;28;20109;-77
2021/11/30 12:54:39;;;;;;;22.15;20.30;;;19.30;99.90;;;;;;5036020;28;20395;-78
2021/11/30 12:57:12;;;;;;;21.42;19.80;;;19.30;99.90;;;;;;5037861;28;20486;-77
2021/11/30 12:59:39;;;;;;;21.60;20.00;;;19.30;99.90;;;;;;5036624;28;20040;-77